Terminal Aerodrome Forecast
Issued by NWS

Home | Current Version | Previous Version | Graphics & Text | Print | Product List | Glossary On
Versions: 1 2 3 4 5 6 7 8 9 10 11 12 13 14 15 16 17 18 19 20 21 22
000
FTUS43 KBIS 201700
TAFDIK
TAF
KDIK 201720Z 2018/2118 27011KT P6SM SKC
     FM202000 27014G23KT P6SM FEW120
     FM210100 VRB02KT P6SM SCT110
     FM210700 08005KT P6SM FEW140
     FM211100 05010KT P6SM FEW130 BKN180=

USA.gov is the U.S. government's official web portal to all federal, state and local government web resources and services.